A- A+ FrançaisEnglishEspañol中国

Services sur Internet Soldes sur Internet Des idées de cadeaux Météo Météo aéro

La météo à : Autours de vous Tarbes-Lourdes-PyrénéesParis-Le-Bourget AlbertvilleLe-Havre-Octeville

manche à air

La météo aéronautique pour les pilotes, la préparation du vol avec les METAR (METeorological Aerodrome Report, message d'observation des conditions météorologiques pour l'aviation) et Les TAF (Terminal Aerodrome Forecast : message de prévision à court terme des conditions météorologiques pour l'aviation). Et les autres ressources comme les VAC (Visual Approch Chart) et les NOTAM (Notice To Airman) pour préprer les vols.

Aéroport Sumburgh (Royaume-Uni) / OACI EGPB/ IATA LSI

L'altitude de l'aéroport Sumburgh est de 6 m = 20 ft. Il est situé à proximité de Lerwick (Royaume-Uni). La météo générale à 5 jours est disponible pour Pierowall situé à 113.9 km.

METAR de l'aéroport Sumburgh - EGPB

EGPB 110220Z AUTO 24036G48KT 9000 SCT016/// BKN033/// BKN046/// 06/03 Q0979 RERA

Décodage du METAR de l'aéroport Sumburgh (GB)

METAR émis par EGPB le mercredi 11 décembre 2019 à 02:20 heure TU. C'est un METAR généré automatiquement, il y a 9 minutes.

La visibilité est de 9 km = 5.6 sm.

La température est de 6°C = 43 °F et le point rosée est de 3°C = 37 °F . Ce qui correspond à 81% d'humidité relative.

Le QNH est de 979 hPa = 28.91 inHg

Vent de 36 kt = 67 km/h avec des rafales à 48 kt = 89 km/h, orienté à 240°.

Nuages : Nuages épars à 1600 ft = 490 mètres. Couverture nuageuse fragmentée à 3300 ft = 1010 mètres. Couverture nuageuse fragmentée à 4600 ft = 1400 mètres.

RERA

TAF de l'aéroport Sumburgh - EGPB

EGPB 110202Z 1103/1112 23027KT 9999 SCT020

EGPB 110202Z 1103/1112 23027KT 9999 nuages épars à 020

Aéroport à proximité de Sumburgh

Météo générale à 5 jours à Pierowall (113.9 km)Aéroport Lerwick (35 km)Aéroport Fair Isle (42 km)Aéroport Whalsay (59 km)Aéroport Scatsta (62 km)Aéroport North Ronaldsay (86 km)Aéroport Sanday (100 km)

Vue aérienne de l'aéroport Sumburgh

NOTAM de l'aéroport Sumburgh

Les NOTAM sont fournis sans aucune garantie de leur actualité. Le pilote est le seul responsable de la vérification de sa validité avant de l'utiliser opérationnellement pour préparer un vol ou l'utiliser lors de sa navigation.

Pas de NOTAM

Sources des données